sensor_id;sensor_type;location;lat;lon;timestamp;P1;durP1;ratioP1;P2;durP2;ratioP2
4078;SDS011;2054;47.858;11.156;2022-10-31T03:31:26;5.97;;;2.88;;
4078;SDS011;2054;47.858;11.156;2022-10-31T03:33:56;9.50;;;3.30;;
4078;SDS011;2054;47.858;11.156;2022-10-31T03:36:25;5.43;;;3.00;;
4078;SDS011;2054;47.858;11.156;2022-10-31T03:38:53;5.53;;;2.92;;
4078;SDS011;2054;47.858;11.156;2022-10-31T03:41:21;6.85;;;3.20;;
4078;SDS011;2054;47.858;11.156;2022-10-31T03:43:52;11.32;;;4.13;;
4078;SDS011;2054;47.858;11.156;2022-10-31T03:46:21;7.70;;;2.75;;
4078;SDS011;2054;47.858;11.156;2022-10-31T03:48:49;5.13;;;2.80;;
4078;SDS011;2054;47.858;11.156;2022-10-31T03:51:18;5.95;;;2.88;;
4078;SDS011;2054;47.858;11.156;2022-10-31T03:53:50;5.53;;;2.80;;
4078;SDS011;2054;47.858;11.156;2022-10-31T03:56:21;14.63;;;3.47;;
4078;SDS011;2054;47.858;11.156;2022-10-31T03:58:52;7.57;;;3.35;;
4078;SDS011;2054;47.858;11.156;2022-10-31T04:01:22;10.10;;;3.10;;
4078;SDS011;2054;47.858;11.156;2022-10-31T04:03:52;10.23;;;4.75;;
4078;SDS011;2054;47.858;11.156;2022-10-31T04:06:20;4.85;;;2.63;;
4078;SDS011;2054;47.858;11.156;2022-10-31T04:08:49;8.65;;;2.65;;
4078;SDS011;2054;47.858;11.156;2022-10-31T04:11:18;8.43;;;2.78;;
4078;SDS011;2054;47.858;11.156;2022-10-31T04:13:46;4.75;;;2.78;;
4078;SDS011;2054;47.858;11.156;2022-10-31T04:16:14;7.47;;;2.92;;
4078;SDS011;2054;47.858;11.156;2022-10-31T04:18:42;7.00;;;2.88;;
4078;SDS011;2054;47.858;11.156;2022-10-31T04:21:11;4.78;;;2.25;;
4078;SDS011;2054;47.858;11.156;2022-10-31T04:23:38;7.18;;;2.53;;
4078;SDS011;2054;47.858;11.156;2022-10-31T04:26:05;4.95;;;2.13;;
4078;SDS011;2054;47.858;11.156;2022-10-31T04:28:32;7.82;;;2.85;;
4078;SDS011;2054;47.858;11.156;2022-10-31T04:30:59;9.23;;;2.65;;
4078;SDS011;2054;47.858;11.156;2022-10-31T04:33:27;5.43;;;2.88;;
4078;SDS011;2054;47.858;11.156;2022-10-31T04:35:54;9.60;;;4.32;;
4078;SDS011;2054;47.858;11.156;2022-10-31T04:38:22;8.65;;;3.78;;
4078;SDS011;2054;47.858;11.156;2022-10-31T04:40:49;8.50;;;3.53;;
4078;SDS011;2054;47.858;11.156;2022-10-31T04:43:17;8.57;;;2.85;;
4078;SDS011;2054;47.858;11.156;2022-10-31T04:45:44;7.28;;;2.83;;
4078;SDS011;2054;47.858;11.156;2022-10-31T04:48:11;8.50;;;3.00;;
4078;SDS011;2054;47.858;11.156;2022-10-31T04:50:38;10.90;;;3.20;;
4078;SDS011;2054;47.858;11.156;2022-10-31T04:53:06;5.85;;;3.17;;
4078;SDS011;2054;47.858;11.156;2022-10-31T04:55:34;6.03;;;2.90;;
4078;SDS011;2054;47.858;11.156;2022-10-31T04:58:01;8.30;;;3.08;;
4078;SDS011;2054;47.858;11.156;2022-10-31T05:00:29;8.23;;;3.65;;
4078;SDS011;2054;47.858;11.156;2022-10-31T05:02:57;4.95;;;2.90;;
4078;SDS011;2054;47.858;11.156;2022-10-31T05:05:25;7.85;;;2.72;;
4078;SDS011;2054;47.858;11.156;2022-10-31T05:07:52;8.13;;;3.08;;
4078;SDS011;2054;47.858;11.156;2022-10-31T05:10:21;6.30;;;2.78;;
4078;SDS011;2054;47.858;11.156;2022-10-31T05:12:50;10.32;;;2.90;;
4078;SDS011;2054;47.858;11.156;2022-10-31T05:15:18;6.28;;;3.15;;
4078;SDS011;2054;47.858;11.156;2022-10-31T05:17:46;7.90;;;3.47;;
4078;SDS011;2054;47.858;11.156;2022-10-31T05:20:14;4.95;;;2.25;;
4078;SDS011;2054;47.858;11.156;2022-10-31T05:22:42;10.73;;;3.17;;
4078;SDS011;2054;47.858;11.156;2022-10-31T05:25:09;7.20;;;3.03;;
4078;SDS011;2054;47.858;11.156;2022-10-31T05:27:38;7.38;;;3.45;;
4078;SDS011;2054;47.858;11.156;2022-10-31T05:30:07;8.20;;;2.80;;
4078;SDS011;2054;47.858;11.156;2022-10-31T05:32:37;6.75;;;2.88;;
4078;SDS011;2054;47.858;11.156;2022-10-31T05:35:05;8.63;;;2.80;;
4078;SDS011;2054;47.858;11.156;2022-10-31T05:37:34;6.28;;;2.63;;
4078;SDS011;2054;47.858;11.156;2022-10-31T05:40:01;8.63;;;3.03;;
4078;SDS011;2054;47.858;11.156;2022-10-31T05:42:28;10.23;;;3.17;;
4078;SDS011;2054;47.858;11.156;2022-10-31T05:44:55;6.97;;;3.30;;
4078;SDS011;2054;47.858;11.156;2022-10-31T05:47:24;8.90;;;3.05;;
4078;SDS011;2054;47.858;11.156;2022-10-31T05:49:51;5.32;;;2.70;;
4078;SDS011;2054;47.858;11.156;2022-10-31T05:52:19;5.68;;;2.97;;
4078;SDS011;2054;47.858;11.156;2022-10-31T05:54:46;6.00;;;3.53;;
4078;SDS011;2054;47.858;11.156;2022-10-31T05:57:13;10.80;;;3.50;;
4078;SDS011;2054;47.858;11.156;2022-10-31T05:59:40;7.18;;;3.47;;
4078;SDS011;2054;47.858;11.156;2022-10-31T06:02:08;7.10;;;3.42;;
4078;SDS011;2054;47.858;11.156;2022-10-31T06:04:36;5.50;;;3.10;;
4078;SDS011;2054;47.858;11.156;2022-10-31T06:07:03;7.82;;;3.67;;
4078;SDS011;2054;47.858;11.156;2022-10-31T06:09:30;7.38;;;3.03;;
4078;SDS011;2054;47.858;11.156;2022-10-31T06:11:58;6.38;;;3.33;;
4078;SDS011;2054;47.858;11.156;2022-10-31T06:14:25;9.20;;;2.97;;
4078;SDS011;2054;47.858;11.156;2022-10-31T06:16:52;6.65;;;3.05;;
4078;SDS011;2054;47.858;11.156;2022-10-31T06:19:20;6.18;;;3.53;;
4078;SDS011;2054;47.858;11.156;2022-10-31T06:21:49;6.88;;;3.30;;
4078;SDS011;2054;47.858;11.156;2022-10-31T06:24:16;6.10;;;2.65;;
4078;SDS011;2054;47.858;11.156;2022-10-31T06:26:43;6.97;;;3.10;;
4078;SDS011;2054;47.858;11.156;2022-10-31T06:29:10;4.57;;;2.75;;
4078;SDS011;2054;47.858;11.156;2022-10-31T06:31:37;8.18;;;3.78;;
4078;SDS011;2054;47.858;11.156;2022-10-31T06:34:04;5.60;;;2.83;;
4078;SDS011;2054;47.858;11.156;2022-10-31T06:36:32;6.28;;;2.60;;
4078;SDS011;2054;47.858;11.156;2022-10-31T06:39:01;5.43;;;2.88;;
4078;SDS011;2054;47.858;11.156;2022-10-31T06:41:28;7.97;;;2.55;;
4078;SDS011;2054;47.858;11.156;2022-10-31T06:43:55;6.43;;;2.40;;
4078;SDS011;2054;47.858;11.156;2022-10-31T06:46:22;6.05;;;2.53;;
4078;SDS011;2054;47.858;11.156;2022-10-31T06:48:49;9.05;;;2.70;;
4078;SDS011;2054;47.858;11.156;2022-10-31T06:51:17;7.38;;;2.38;;
4078;SDS011;2054;47.858;11.156;2022-10-31T06:53:44;9.15;;;2.72;;
4078;SDS011;2054;47.858;11.156;2022-10-31T06:56:12;7.20;;;2.50;;
4078;SDS011;2054;47.858;11.156;2022-10-31T06:58:39;7.07;;;2.38;;
4078;SDS011;2054;47.858;11.156;2022-10-31T07:01:07;4.90;;;2.40;;
4078;SDS011;2054;47.858;11.156;2022-10-31T07:03:34;5.45;;;2.38;;
4078;SDS011;2054;47.858;11.156;2022-10-31T07:06:01;5.13;;;2.70;;
4078;SDS011;2054;47.858;11.156;2022-10-31T07:08:28;6.47;;;2.80;;
4078;SDS011;2054;47.858;11.156;2022-10-31T07:10:56;5.20;;;2.30;;
4078;SDS011;2054;47.858;11.156;2022-10-31T07:13:25;8.77;;;2.75;;
4078;SDS011;2054;47.858;11.156;2022-10-31T07:15:52;6.05;;;2.33;;
4078;SDS011;2054;47.858;11.156;2022-10-31T07:18:20;3.72;;;2.05;;
4078;SDS011;2054;47.858;11.156;2022-10-31T07:20:47;5.00;;;2.78;;
4078;SDS011;2054;47.858;11.156;2022-10-31T07:23:15;6.30;;;2.42;;
4078;SDS011;2054;47.858;11.156;2022-10-31T07:25:42;11.27;;;3.53;;
4078;SDS011;2054;47.858;11.156;2022-10-31T07:28:09;5.80;;;2.70;;
4078;SDS011;2054;47.858;11.156;2022-10-31T07:30:38;6.38;;;2.83;;
4078;SDS011;2054;47.858;11.156;2022-10-31T07:33:05;4.53;;;2.30;;
4078;SDS011;2054;47.858;11.156;2022-10-31T07:35:33;5.88;;;2.33;;
4078;SDS011;2054;47.858;11.156;2022-10-31T07:38:06;9.52;;;2.88;;
4078;SDS011;2054;47.858;11.156;2022-10-31T07:40:34;9.30;;;2.67;;
4078;SDS011;2054;47.858;11.156;2022-10-31T07:43:01;10.32;;;3.80;;
4078;SDS011;2054;47.858;11.156;2022-10-31T07:45:28;6.60;;;4.05;;
4078;SDS011;2054;47.858;11.156;2022-10-31T07:47:57;7.90;;;3.40;;
4078;SDS011;2054;47.858;11.156;2022-10-31T07:50:25;6.95;;;3.75;;
4078;SDS011;2054;47.858;11.156;2022-10-31T07:52:58;10.85;;;4.20;;
4078;SDS011;2054;47.858;11.156;2022-10-31T07:55:26;10.57;;;4.38;;
4078;SDS011;2054;47.858;11.156;2022-10-31T07:57:57;9.57;;;4.50;;
4078;SDS011;2054;47.858;11.156;2022-10-31T08:00:24;7.88;;;4.38;;
4078;SDS011;2054;47.858;11.156;2022-10-31T08:02:59;9.98;;;4.43;;
4078;SDS011;2054;47.858;11.156;2022-10-31T08:05:26;9.15;;;4.50;;
4078;SDS011;2054;47.858;11.156;2022-10-31T08:07:54;13.00;;;4.80;;
4078;SDS011;2054;47.858;11.156;2022-10-31T08:10:21;8.82;;;4.32;;
4078;SDS011;2054;47.858;11.156;2022-10-31T08:12:54;7.60;;;4.25;;
4078;SDS011;2054;47.858;11.156;2022-10-31T08:15:21;7.70;;;3.47;;
4078;SDS011;2054;47.858;11.156;2022-10-31T08:17:48;8.50;;;3.85;;
4078;SDS011;2054;47.858;11.156;2022-10-31T08:20:17;7.53;;;3.63;;
4078;SDS011;2054;47.858;11.156;2022-10-31T08:22:52;6.53;;;3.65;;
4078;SDS011;2054;47.858;11.156;2022-10-31T08:25:19;9.05;;;3.33;;
4078;SDS011;2054;47.858;11.156;2022-10-31T08:27:48;6.45;;;3.65;;
4078;SDS011;2054;47.858;11.156;2022-10-31T08:30:15;10.45;;;3.28;;
4078;SDS011;2054;47.858;11.156;2022-10-31T08:32:42;6.65;;;3.38;;
4078;SDS011;2054;47.858;11.156;2022-10-31T08:35:10;7.70;;;3.63;;
4078;SDS011;2054;47.858;11.156;2022-10-31T08:37:38;7.05;;;3.17;;
4078;SDS011;2054;47.858;11.156;2022-10-31T08:40:06;8.60;;;3.70;;
4078;SDS011;2054;47.858;11.156;2022-10-31T08:42:33;8.50;;;3.67;;
4078;SDS011;2054;47.858;11.156;2022-10-31T08:45:01;7.80;;;4.18;;
4078;SDS011;2054;47.858;11.156;2022-10-31T08:47:28;6.57;;;3.88;;
4078;SDS011;2054;47.858;11.156;2022-10-31T08:49:55;12.82;;;4.20;;
4078;SDS011;2054;47.858;11.156;2022-10-31T08:52:23;11.75;;;4.60;;
4078;SDS011;2054;47.858;11.156;2022-10-31T08:54:52;10.93;;;4.82;;
4078;SDS011;2054;47.858;11.156;2022-10-31T08:57:19;13.60;;;4.63;;
4078;SDS011;2054;47.858;11.156;2022-10-31T08:59:47;10.73;;;4.70;;
4078;SDS011;2054;47.858;11.156;2022-10-31T09:02:14;7.45;;;3.70;;
4078;SDS011;2054;47.858;11.156;2022-10-31T09:04:41;8.95;;;3.45;;
4078;SDS011;2054;47.858;11.156;2022-10-31T09:07:08;10.05;;;3.78;;
4078;SDS011;2054;47.858;11.156;2022-10-31T09:09:35;11.25;;;3.65;;
4078;SDS011;2054;47.858;11.156;2022-10-31T09:12:04;9.25;;;3.90;;
4078;SDS011;2054;47.858;11.156;2022-10-31T09:14:32;7.53;;;3.60;;
4078;SDS011;2054;47.858;11.156;2022-10-31T09:16:59;8.07;;;3.53;;
4078;SDS011;2054;47.858;11.156;2022-10-31T09:19:26;8.27;;;3.55;;
4078;SDS011;2054;47.858;11.156;2022-10-31T09:21:53;7.15;;;3.55;;
4078;SDS011;2054;47.858;11.156;2022-10-31T09:24:20;15.73;;;5.50;;
4078;SDS011;2054;47.858;11.156;2022-10-31T09:26:47;9.43;;;3.55;;
4078;SDS011;2054;47.858;11.156;2022-10-31T09:29:16;14.32;;;4.00;;
4078;SDS011;2054;47.858;11.156;2022-10-31T09:31:43;7.85;;;3.10;;
4078;SDS011;2054;47.858;11.156;2022-10-31T09:34:10;8.65;;;3.25;;
4078;SDS011;2054;47.858;11.156;2022-10-31T09:36:37;5.05;;;2.83;;
4078;SDS011;2054;47.858;11.156;2022-10-31T09:39:05;6.70;;;2.83;;
4078;SDS011;2054;47.858;11.156;2022-10-31T09:41:37;5.78;;;2.90;;
4078;SDS011;2054;47.858;11.156;2022-10-31T09:44:12;5.85;;;2.88;;
4078;SDS011;2054;47.858;11.156;2022-10-31T09:46:46;10.23;;;3.28;;
4078;SDS011;2054;47.858;11.156;2022-10-31T09:49:24;8.50;;;2.75;;
4078;SDS011;2054;47.858;11.156;2022-10-31T09:51:55;7.78;;;3.15;;
4078;SDS011;2054;47.858;11.156;2022-10-31T09:54:26;6.75;;;3.70;;
4078;SDS011;2054;47.858;11.156;2022-10-31T09:56:55;6.28;;;2.70;;
4078;SDS011;2054;47.858;11.156;2022-10-31T09:59:25;4.95;;;2.80;;
4078;SDS011;2054;47.858;11.156;2022-10-31T10:01:56;7.22;;;2.92;;
4078;SDS011;2054;47.858;11.156;2022-10-31T10:04:36;11.80;;;3.25;;
4078;SDS011;2054;47.858;11.156;2022-10-31T10:07:08;7.20;;;2.83;;
4078;SDS011;2054;47.858;11.156;2022-10-31T10:09:37;7.28;;;2.70;;
4078;SDS011;2054;47.858;11.156;2022-10-31T10:12:07;5.88;;;3.20;;
4078;SDS011;2054;47.858;11.156;2022-10-31T10:14:41;9.35;;;4.35;;
4078;SDS011;2054;47.858;11.156;2022-10-31T10:17:19;5.28;;;2.85;;
4078;SDS011;2054;47.858;11.156;2022-10-31T10:22:50;5.32;;;2.83;;
4078;SDS011;2054;47.858;11.156;2022-10-31T10:25:20;8.10;;;3.35;;
4078;SDS011;2054;47.858;11.156;2022-10-31T10:27:51;8.10;;;3.08;;
4078;SDS011;2054;47.858;11.156;2022-10-31T10:30:22;7.30;;;2.50;;
4078;SDS011;2054;47.858;11.156;2022-10-31T10:32:52;4.70;;;2.70;;
4078;SDS011;2054;47.858;11.156;2022-10-31T10:35:22;5.43;;;2.50;;
4078;SDS011;2054;47.858;11.156;2022-10-31T10:37:52;6.18;;;2.83;;
4078;SDS011;2054;47.858;11.156;2022-10-31T10:40:20;8.45;;;2.70;;
4078;SDS011;2054;47.858;11.156;2022-10-31T10:42:52;5.55;;;3.15;;
4078;SDS011;2054;47.858;11.156;2022-10-31T10:45:40;5.25;;;2.63;;
4078;SDS011;2054;47.858;11.156;2022-10-31T10:48:29;7.97;;;3.25;;
4078;SDS011;2054;47.858;11.156;2022-10-31T10:50:58;7.97;;;2.58;;
4078;SDS011;2054;47.858;11.156;2022-10-31T10:53:34;9.20;;;3.78;;
4078;SDS011;2054;47.858;11.156;2022-10-31T10:56:15;10.15;;;2.85;;
4078;SDS011;2054;47.858;11.156;2022-10-31T10:58:43;8.07;;;3.00;;
4078;SDS011;2054;47.858;11.156;2022-10-31T11:01:11;6.18;;;2.92;;
4078;SDS011;2054;47.858;11.156;2022-10-31T11:03:40;10.52;;;2.72;;
4078;SDS011;2054;47.858;11.156;2022-10-31T11:06:15;5.78;;;2.45;;
4078;SDS011;2054;47.858;11.156;2022-10-31T11:08:45;7.75;;;2.55;;
4078;SDS011;2054;47.858;11.156;2022-10-31T11:11:15;8.43;;;3.22;;
4078;SDS011;2054;47.858;11.156;2022-10-31T11:13:46;9.00;;;2.65;;
4078;SDS011;2054;47.858;11.156;2022-10-31T11:16:15;8.02;;;2.90;;
4078;SDS011;2054;47.858;11.156;2022-10-31T11:19:04;9.60;;;2.83;;
4078;SDS011;2054;47.858;11.156;2022-10-31T11:21:32;7.20;;;3.15;;
4078;SDS011;2054;47.858;11.156;2022-10-31T11:24:03;8.25;;;2.25;;
4078;SDS011;2054;47.858;11.156;2022-10-31T11:26:30;3.83;;;2.33;;
4078;SDS011;2054;47.858;11.156;2022-10-31T11:29:00;7.30;;;2.42;;
4078;SDS011;2054;47.858;11.156;2022-10-31T11:31:29;9.00;;;2.60;;
4078;SDS011;2054;47.858;11.156;2022-10-31T11:33:59;9.73;;;2.50;;
4078;SDS011;2054;47.858;11.156;2022-10-31T11:36:29;6.50;;;2.60;;
4078;SDS011;2054;47.858;11.156;2022-10-31T11:38:57;6.70;;;2.60;;
4078;SDS011;2054;47.858;11.156;2022-10-31T11:41:25;7.65;;;3.13;;
4078;SDS011;2054;47.858;11.156;2022-10-31T11:43:54;8.55;;;2.70;;
4078;SDS011;2054;47.858;11.156;2022-10-31T11:46:23;8.63;;;2.75;;
4078;SDS011;2054;47.858;11.156;2022-10-31T11:48:51;9.60;;;2.47;;
4078;SDS011;2054;47.858;11.156;2022-10-31T11:51:21;7.93;;;2.78;;
4078;SDS011;2054;47.858;11.156;2022-10-31T11:53:50;7.82;;;2.95;;
4078;SDS011;2054;47.858;11.156;2022-10-31T11:56:18;8.48;;;2.72;;
4078;SDS011;2054;47.858;11.156;2022-10-31T11:58:54;6.18;;;2.85;;
4078;SDS011;2054;47.858;11.156;2022-10-31T12:01:24;5.75;;;2.60;;
4078;SDS011;2054;47.858;11.156;2022-10-31T12:03:54;6.95;;;3.40;;
4078;SDS011;2054;47.858;11.156;2022-10-31T12:06:28;9.05;;;3.08;;
4078;SDS011;2054;47.858;11.156;2022-10-31T12:08:57;8.00;;;3.22;;
4078;SDS011;2054;47.858;11.156;2022-10-31T12:11:31;8.82;;;2.78;;
4078;SDS011;2054;47.858;11.156;2022-10-31T12:14:08;6.45;;;2.75;;
4078;SDS011;2054;47.858;11.156;2022-10-31T12:16:39;5.35;;;2.50;;
4078;SDS011;2054;47.858;11.156;2022-10-31T12:19:11;6.72;;;2.60;;
4078;SDS011;2054;47.858;11.156;2022-10-31T12:21:53;4.85;;;2.20;;
4078;SDS011;2054;47.858;11.156;2022-10-31T12:24:27;12.00;;;2.80;;
4078;SDS011;2054;47.858;11.156;2022-10-31T12:26:59;7.00;;;2.58;;
4078;SDS011;2054;47.858;11.156;2022-10-31T12:29:32;8.85;;;2.83;;
4078;SDS011;2054;47.858;11.156;2022-10-31T12:32:08;5.47;;;2.65;;
4078;SDS011;2054;47.858;11.156;2022-10-31T12:34:47;5.43;;;2.53;;
4078;SDS011;2054;47.858;11.156;2022-10-31T12:37:20;12.30;;;2.65;;
4078;SDS011;2054;47.858;11.156;2022-10-31T12:39:52;9.82;;;2.85;;
4078;SDS011;2054;47.858;11.156;2022-10-31T12:42:25;5.95;;;2.20;;
4078;SDS011;2054;47.858;11.156;2022-10-31T12:44:59;5.47;;;2.80;;
4078;SDS011;2054;47.858;11.156;2022-10-31T12:47:44;9.13;;;2.80;;
4078;SDS011;2054;47.858;11.156;2022-10-31T12:50:18;7.70;;;2.67;;
4078;SDS011;2054;47.858;11.156;2022-10-31T12:52:51;8.57;;;3.53;;
4078;SDS011;2054;47.858;11.156;2022-10-31T12:55:35;8.05;;;3.00;;
4078;SDS011;2054;47.858;11.156;2022-10-31T12:58:07;10.15;;;4.22;;
4078;SDS011;2054;47.858;11.156;2022-10-31T13:00:36;7.85;;;3.67;;
4078;SDS011;2054;47.858;11.156;2022-10-31T13:03:07;10.00;;;3.10;;
4078;SDS011;2054;47.858;11.156;2022-10-31T13:05:36;8.15;;;2.78;;
4078;SDS011;2054;47.858;11.156;2022-10-31T13:08:06;8.05;;;3.30;;
4078;SDS011;2054;47.858;11.156;2022-10-31T13:10:36;8.05;;;3.00;;
4078;SDS011;2054;47.858;11.156;2022-10-31T13:13:05;11.40;;;3.03;;
4078;SDS011;2054;47.858;11.156;2022-10-31T13:15:34;7.05;;;3.30;;
4078;SDS011;2054;47.858;11.156;2022-10-31T13:18:06;11.27;;;4.20;;
4078;SDS011;2054;47.858;11.156;2022-10-31T13:20:38;7.00;;;3.45;;
4078;SDS011;2054;47.858;11.156;2022-10-31T13:23:10;10.00;;;3.53;;
4078;SDS011;2054;47.858;11.156;2022-10-31T13:25:40;6.25;;;3.47;;
4078;SDS011;2054;47.858;11.156;2022-10-31T13:28:23;12.75;;;3.22;;
4078;SDS011;2054;47.858;11.156;2022-10-31T13:30:52;5.65;;;3.17;;
4078;SDS011;2054;47.858;11.156;2022-10-31T13:33:21;8.18;;;3.35;;
4078;SDS011;2054;47.858;11.156;2022-10-31T13:35:51;11.38;;;3.65;;
4078;SDS011;2054;47.858;11.156;2022-10-31T13:38:22;7.25;;;3.22;;
4078;SDS011;2054;47.858;11.156;2022-10-31T13:40:52;7.07;;;2.95;;
4078;SDS011;2054;47.858;11.156;2022-10-31T13:43:27;8.52;;;3.33;;
4078;SDS011;2054;47.858;11.156;2022-10-31T13:45:55;6.82;;;3.05;;
4078;SDS011;2054;47.858;11.156;2022-10-31T13:48:33;12.75;;;3.28;;
4078;SDS011;2054;47.858;11.156;2022-10-31T13:51:02;9.98;;;2.90;;
4078;SDS011;2054;47.858;11.156;2022-10-31T13:53:44;11.70;;;3.47;;
4078;SDS011;2054;47.858;11.156;2022-10-31T13:56:18;6.82;;;2.70;;
4078;SDS011;2054;47.858;11.156;2022-10-31T13:58:56;10.20;;;3.03;;
4078;SDS011;2054;47.858;11.156;2022-10-31T14:01:24;9.25;;;2.72;;
4078;SDS011;2054;47.858;11.156;2022-10-31T14:03:57;5.53;;;3.17;;
4078;SDS011;2054;47.858;11.156;2022-10-31T14:06:34;9.18;;;3.50;;
4078;SDS011;2054;47.858;11.156;2022-10-31T14:09:03;6.70;;;2.85;;
4078;SDS011;2054;47.858;11.156;2022-10-31T14:11:31;8.82;;;3.30;;
4078;SDS011;2054;47.858;11.156;2022-10-31T14:13:58;6.10;;;2.70;;
4078;SDS011;2054;47.858;11.156;2022-10-31T14:16:27;5.60;;;2.60;;
4078;SDS011;2054;47.858;11.156;2022-10-31T14:18:57;5.25;;;2.58;;
4078;SDS011;2054;47.858;11.156;2022-10-31T14:21:26;5.75;;;2.92;;
4078;SDS011;2054;47.858;11.156;2022-10-31T14:23:54;6.43;;;2.67;;
4078;SDS011;2054;47.858;11.156;2022-10-31T14:26:33;8.23;;;2.92;;
4078;SDS011;2054;47.858;11.156;2022-10-31T14:29:02;8.02;;;3.25;;
4078;SDS011;2054;47.858;11.156;2022-10-31T14:31:31;7.93;;;3.30;;
4078;SDS011;2054;47.858;11.156;2022-10-31T14:34:01;13.85;;;3.20;;
4078;SDS011;2054;47.858;11.156;2022-10-31T14:36:30;9.02;;;3.35;;
4078;SDS011;2054;47.858;11.156;2022-10-31T14:39:00;9.23;;;3.40;;
4078;SDS011;2054;47.858;11.156;2022-10-31T14:41:43;8.68;;;3.17;;
4078;SDS011;2054;47.858;11.156;2022-10-31T14:44:21;7.82;;;3.30;;
4078;SDS011;2054;47.858;11.156;2022-10-31T14:46:54;10.73;;;3.00;;
4078;SDS011;2054;47.858;11.156;2022-10-31T14:49:28;9.07;;;3.72;;
4078;SDS011;2054;47.858;11.156;2022-10-31T14:51:59;6.72;;;2.53;;
4078;SDS011;2054;47.858;11.156;2022-10-31T14:54:27;8.60;;;2.88;;
4078;SDS011;2054;47.858;11.156;2022-10-31T14:56:58;7.68;;;2.72;;
4078;SDS011;2054;47.858;11.156;2022-10-31T14:59:28;10.07;;;3.42;;
4078;SDS011;2054;47.858;11.156;2022-10-31T15:01:57;9.70;;;3.78;;
4078;SDS011;2054;47.858;11.156;2022-10-31T15:04:26;10.35;;;3.20;;
4078;SDS011;2054;47.858;11.156;2022-10-31T15:06:54;7.60;;;3.83;;
4078;SDS011;2054;47.858;11.156;2022-10-31T15:09:25;11.57;;;3.83;;
4078;SDS011;2054;47.858;11.156;2022-10-31T15:11:52;6.57;;;3.60;;
4078;SDS011;2054;47.858;11.156;2022-10-31T15:14:23;10.18;;;3.38;;
4078;SDS011;2054;47.858;11.156;2022-10-31T15:16:50;10.65;;;3.78;;
4078;SDS011;2054;47.858;11.156;2022-10-31T15:19:20;8.30;;;3.70;;
4078;SDS011;2054;47.858;11.156;2022-10-31T15:21:49;7.72;;;3.17;;
4078;SDS011;2054;47.858;11.156;2022-10-31T15:24:17;10.07;;;3.97;;
4078;SDS011;2054;47.858;11.156;2022-10-31T15:26:45;9.15;;;3.95;;
4078;SDS011;2054;47.858;11.156;2022-10-31T15:29:14;9.82;;;3.60;;
4078;SDS011;2054;47.858;11.156;2022-10-31T15:31:50;7.15;;;3.30;;
4078;SDS011;2054;47.858;11.156;2022-10-31T15:34:19;9.93;;;4.72;;
4078;SDS011;2054;47.858;11.156;2022-10-31T15:36:47;20.17;;;5.07;;
4078;SDS011;2054;47.858;11.156;2022-10-31T15:39:15;11.57;;;3.65;;
4078;SDS011;2054;47.858;11.156;2022-10-31T15:41:44;8.80;;;3.67;;
4078;SDS011;2054;47.858;11.156;2022-10-31T15:44:15;10.93;;;4.47;;
4078;SDS011;2054;47.858;11.156;2022-10-31T15:46:44;9.43;;;3.28;;
4078;SDS011;2054;47.858;11.156;2022-10-31T15:49:22;7.28;;;3.03;;
4078;SDS011;2054;47.858;11.156;2022-10-31T15:51:53;9.77;;;4.07;;
4078;SDS011;2054;47.858;11.156;2022-10-31T15:54:20;10.77;;;3.55;;
4078;SDS011;2054;47.858;11.156;2022-10-31T15:56:48;6.80;;;3.03;;
4078;SDS011;2054;47.858;11.156;2022-10-31T15:59:16;11.23;;;3.60;;
4078;SDS011;2054;47.858;11.156;2022-10-31T16:01:55;6.30;;;3.47;;
4078;SDS011;2054;47.858;11.156;2022-10-31T16:04:26;5.28;;;3.15;;
4078;SDS011;2054;47.858;11.156;2022-10-31T16:06:57;8.27;;;3.25;;
4078;SDS011;2054;47.858;11.156;2022-10-31T16:09:25;8.10;;;2.90;;
4078;SDS011;2054;47.858;11.156;2022-10-31T16:11:52;5.45;;;2.63;;
4078;SDS011;2054;47.858;11.156;2022-10-31T16:14:22;8.98;;;3.67;;
4078;SDS011;2054;47.858;11.156;2022-10-31T16:16:50;8.27;;;3.28;;
4078;SDS011;2054;47.858;11.156;2022-10-31T16:19:19;6.28;;;3.00;;
4078;SDS011;2054;47.858;11.156;2022-10-31T16:21:48;7.63;;;2.97;;
4078;SDS011;2054;47.858;11.156;2022-10-31T16:24:18;10.32;;;3.20;;
4078;SDS011;2054;47.858;11.156;2022-10-31T16:26:47;7.43;;;3.17;;
4078;SDS011;2054;47.858;11.156;2022-10-31T16:29:23;11.07;;;4.80;;
4078;SDS011;2054;47.858;11.156;2022-10-31T16:31:51;8.45;;;3.20;;
4078;SDS011;2054;47.858;11.156;2022-10-31T16:34:20;9.35;;;3.80;;
4078;SDS011;2054;47.858;11.156;2022-10-31T16:36:48;9.43;;;3.33;;
4078;SDS011;2054;47.858;11.156;2022-10-31T16:39:15;10.50;;;4.00;;
4078;SDS011;2054;47.858;11.156;2022-10-31T16:41:43;9.02;;;4.25;;
4078;SDS011;2054;47.858;11.156;2022-10-31T16:44:14;9.95;;;4.47;;
4078;SDS011;2054;47.858;11.156;2022-10-31T16:46:42;8.00;;;5.32;;
4078;SDS011;2054;47.858;11.156;2022-10-31T16:49:09;13.93;;;5.18;;
4078;SDS011;2054;47.858;11.156;2022-10-31T16:51:37;8.43;;;4.03;;
4078;SDS011;2054;47.858;11.156;2022-10-31T16:54:05;10.90;;;4.25;;
4078;SDS011;2054;47.858;11.156;2022-10-31T16:56:34;13.98;;;5.03;;
4078;SDS011;2054;47.858;11.156;2022-10-31T16:59:03;10.07;;;3.60;;
4078;SDS011;2054;47.858;11.156;2022-10-31T17:01:31;11.82;;;3.70;;
4078;SDS011;2054;47.858;11.156;2022-10-31T17:04:00;9.43;;;3.47;;
4078;SDS011;2054;47.858;11.156;2022-10-31T17:06:27;6.70;;;3.35;;
4078;SDS011;2054;47.858;11.156;2022-10-31T17:08:54;15.77;;;4.55;;
4078;SDS011;2054;47.858;11.156;2022-10-31T17:11:23;7.32;;;3.88;;
4078;SDS011;2054;47.858;11.156;2022-10-31T17:13:51;11.45;;;4.57;;
4078;SDS011;2054;47.858;11.156;2022-10-31T17:16:19;8.93;;;4.32;;
4078;SDS011;2054;47.858;11.156;2022-10-31T17:18:47;12.07;;;5.03;;
4078;SDS011;2054;47.858;11.156;2022-10-31T17:21:15;11.02;;;6.15;;
4078;SDS011;2054;47.858;11.156;2022-10-31T17:23:42;13.05;;;5.57;;
4078;SDS011;2054;47.858;11.156;2022-10-31T17:26:10;8.57;;;5.18;;
4078;SDS011;2054;47.858;11.156;2022-10-31T17:28:38;8.77;;;5.60;;
4078;SDS011;2054;47.858;11.156;2022-10-31T17:31:05;12.23;;;5.30;;
4078;SDS011;2054;47.858;11.156;2022-10-31T17:33:33;11.48;;;4.97;;
4078;SDS011;2054;47.858;11.156;2022-10-31T17:36:01;10.45;;;4.90;;
4078;SDS011;2054;47.858;11.156;2022-10-31T17:38:29;9.38;;;4.97;;
4078;SDS011;2054;47.858;11.156;2022-10-31T17:40:56;7.60;;;4.22;;
4078;SDS011;2054;47.858;11.156;2022-10-31T17:43:23;11.40;;;4.88;;
4078;SDS011;2054;47.858;11.156;2022-10-31T17:45:52;10.48;;;4.53;;
4078;SDS011;2054;47.858;11.156;2022-10-31T17:48:20;8.27;;;4.30;;
4078;SDS011;2054;47.858;11.156;2022-10-31T17:50:47;10.48;;;4.15;;
4078;SDS011;2054;47.858;11.156;2022-10-31T17:53:14;7.82;;;3.88;;
4078;SDS011;2054;47.858;11.156;2022-10-31T17:55:41;10.65;;;4.55;;
4078;SDS011;2054;47.858;11.156;2022-10-31T17:58:08;7.97;;;3.95;;
4078;SDS011;2054;47.858;11.156;2022-10-31T18:00:37;8.52;;;4.35;;
4078;SDS011;2054;47.858;11.156;2022-10-31T18:03:06;8.30;;;4.70;;
4078;SDS011;2054;47.858;11.156;2022-10-31T18:05:33;7.70;;;4.15;;
4078;SDS011;2054;47.858;11.156;2022-10-31T18:08:01;12.07;;;4.63;;
4078;SDS011;2054;47.858;11.156;2022-10-31T18:10:29;11.75;;;4.38;;
4078;SDS011;2054;47.858;11.156;2022-10-31T18:12:57;10.70;;;4.45;;
4078;SDS011;2054;47.858;11.156;2022-10-31T18:15:24;9.23;;;4.63;;
4078;SDS011;2054;47.858;11.156;2022-10-31T18:17:51;11.15;;;4.15;;
4078;SDS011;2054;47.858;11.156;2022-10-31T18:20:19;8.77;;;4.70;;
4078;SDS011;2054;47.858;11.156;2022-10-31T18:22:47;10.82;;;4.60;;
4078;SDS011;2054;47.858;11.156;2022-10-31T18:25:14;6.68;;;4.50;;
4078;SDS011;2054;47.858;11.156;2022-10-31T18:27:41;10.25;;;5.57;;
4078;SDS011;2054;47.858;11.156;2022-10-31T18:30:09;13.57;;;5.35;;
4078;SDS011;2054;47.858;11.156;2022-10-31T18:32:36;12.48;;;5.38;;
4078;SDS011;2054;47.858;11.156;2022-10-31T18:35:03;12.27;;;5.90;;
4078;SDS011;2054;47.858;11.156;2022-10-31T18:37:32;12.27;;;5.28;;
4078;SDS011;2054;47.858;11.156;2022-10-31T18:39:59;10.77;;;5.40;;
4078;SDS011;2054;47.858;11.156;2022-10-31T18:42:28;7.63;;;3.95;;
4078;SDS011;2054;47.858;11.156;2022-10-31T18:44:55;14.70;;;5.40;;